FIN7HC EDDB-EFHK
Flight info
| Callsign | FIN7HC |
|---|---|
| Flight time | 1h 34m |
| Altitude | 37000 |
| Route | GERGA3Q/06R GERGA M725 RENKI L132 DEMUR N746 GORPI DCT ALAMI DCT OKEVU DCT EVADI Y370 DIVAM |
| Aircraft | A321/M-SDE3FGHIRWY/LB1 |
Departure
| Time | 2026-05-07 16:30 |
|---|---|
| Airport | Berlin Brandenburg Airport (EDDB) |
Arrival
| Time | 2026-05-07 18:05 |
|---|---|
| Airport | Helsinki Vantaa Airport (EFHK) |
| Time | Latitude | Longitude | Altitude | Speed | Heading |
|---|---|---|---|---|---|
| 2026-05-07 15:18 | 52.36137 | 13.50747 | 155 ft | 0 kts | 69° |
| 2026-05-07 16:16 | 52.36129 | 13.50712 | 155 ft | 4 kts | 72° |
| 2026-05-07 16:16 | 52.36122 | 13.50672 | 155 ft | 4 kts | 76° |
| 2026-05-07 16:16 | 52.36116 | 13.50632 | 155 ft | 4 kts | 81° |
| 2026-05-07 16:17 | 52.36113 | 13.50591 | 155 ft | 4 kts | 88° |
| 2026-05-07 16:17 | 52.36114 | 13.50551 | 155 ft | 4 kts | 107° |
| 2026-05-07 16:17 | 52.36125 | 13.50521 | 155 ft | 2 kts | 157° |
| 2026-05-07 16:17 | 52.36126 | 13.50520 | 155 ft | 0 kts | 159° |
| 2026-05-07 16:21 | 52.36122 | 13.50522 | 155 ft | 2 kts | 159° |
| 2026-05-07 16:21 | 52.36100 | 13.50537 | 155 ft | 7 kts | 158° |
| 2026-05-07 16:22 | 52.36044 | 13.50573 | 155 ft | 10 kts | 158° |
| 2026-05-07 16:22 | 52.35976 | 13.50617 | 155 ft | 11 kts | 159° |
| 2026-05-07 16:22 | 52.35936 | 13.50641 | 155 ft | 3 kts | 160° |
| 2026-05-07 16:22 | 52.35907 | 13.50653 | 155 ft | 5 kts | 170° |
| 2026-05-07 16:23 | 52.35868 | 13.50640 | 154 ft | 7 kts | 198° |
| 2026-05-07 16:23 | 52.35861 | 13.50636 | 154 ft | 0 kts | 196° |
| 2026-05-07 16:23 | 52.35859 | 13.50636 | 154 ft | 2 kts | 196° |
| 2026-05-07 16:24 | 52.35814 | 13.50638 | 154 ft | 10 kts | 173° |
| 2026-05-07 16:24 | 52.35762 | 13.50571 | 157 ft | 11 kts | 245° |
| 2026-05-07 16:24 | 52.35732 | 13.50447 | 154 ft | 12 kts | 248° |
| 2026-05-07 16:24 | 52.35698 | 13.50309 | 154 ft | 14 kts | 249° |
| 2026-05-07 16:25 | 52.35662 | 13.50155 | 154 ft | 15 kts | 249° |
| 2026-05-07 16:25 | 52.35622 | 13.49988 | 154 ft | 16 kts | 249° |
| 2026-05-07 16:25 | 52.35579 | 13.49806 | 154 ft | 18 kts | 249° |
| 2026-05-07 16:25 | 52.35533 | 13.49613 | 154 ft | 19 kts | 249° |
| 2026-05-07 16:26 | 52.35484 | 13.49406 | 154 ft | 20 kts | 248° |
| 2026-05-07 16:26 | 52.35433 | 13.49189 | 154 ft | 21 kts | 249° |
| 2026-05-07 16:26 | 52.35379 | 13.48961 | 154 ft | 22 kts | 249° |
| 2026-05-07 16:26 | 52.35342 | 13.48805 | 154 ft | 22 kts | 249° |
| 2026-05-07 16:27 | 52.35280 | 13.48548 | 154 ft | 8 kts | 249° |
| 2026-05-07 16:27 | 52.35242 | 13.48475 | 154 ft | 9 kts | 196° |
| 2026-05-07 16:27 | 52.35179 | 13.48504 | 154 ft | 10 kts | 159° |
| 2026-05-07 16:27 | 52.35132 | 13.48536 | 154 ft | 0 kts | 152° |
| 2026-05-07 16:28 | 52.35131 | 13.48537 | 154 ft | 1 kts | 151° |
| 2026-05-07 16:29 | 52.35122 | 13.48547 | 154 ft | 3 kts | 143° |
| 2026-05-07 16:29 | 52.35101 | 13.48619 | 154 ft | 11 kts | 102° |
| 2026-05-07 16:29 | 52.35088 | 13.48756 | 154 ft | 15 kts | 98° |
| 2026-05-07 16:29 | 52.35076 | 13.48942 | 154 ft | 18 kts | 90° |
| 2026-05-07 16:30 | 52.35128 | 13.49317 | 155 ft | 69 kts | 67° |
| 2026-05-07 16:30 | 52.35409 | 13.50499 | 158 ft | 150 kts | 69° |
| 2026-05-07 16:30 | 52.35730 | 13.52213 | 920 ft | 159 kts | 89° |
| 2026-05-07 16:30 | 52.35280 | 13.53874 | 1812 ft | 164 kts | 127° |
| 2026-05-07 16:31 | 52.34451 | 13.55225 | 2248 ft | 177 kts | 133° |
| 2026-05-07 16:31 | 52.33484 | 13.56667 | 2484 ft | 198 kts | 133° |
| 2026-05-07 16:31 | 52.32459 | 13.58220 | 2891 ft | 207 kts | 132° |
| 2026-05-07 16:31 | 52.31433 | 13.59878 | 3512 ft | 207 kts | 125° |
| 2026-05-07 16:32 | 52.30873 | 13.61979 | 4071 ft | 204 kts | 94° |
| 2026-05-07 16:32 | 52.31130 | 13.64306 | 4336 ft | 219 kts | 63° |
| 2026-05-07 16:32 | 52.31758 | 13.66623 | 4907 ft | 226 kts | 69° |
| 2026-05-07 16:32 | 52.32247 | 13.69089 | 5531 ft | 230 kts | 72° |
| 2026-05-07 16:33 | 52.32697 | 13.71619 | 6200 ft | 232 kts | 73° |
| 2026-05-07 16:33 | 52.32971 | 13.74239 | 6834 ft | 239 kts | 88° |
| 2026-05-07 16:33 | 52.32869 | 13.77088 | 7204 ft | 262 kts | 94° |
| 2026-05-07 16:33 | 52.32728 | 13.80125 | 7829 ft | 272 kts | 93° |
| 2026-05-07 16:34 | 52.32603 | 13.83239 | 8614 ft | 277 kts | 93° |
| 2026-05-07 16:34 | 52.32486 | 13.86395 | 9427 ft | 280 kts | 94° |
| 2026-05-07 16:34 | 52.32370 | 13.89600 | 10171 ft | 284 kts | 94° |
| 2026-05-07 16:34 | 52.32252 | 13.92849 | 10851 ft | 288 kts | 94° |
| 2026-05-07 16:35 | 52.32129 | 13.96149 | 11536 ft | 293 kts | 94° |
| 2026-05-07 16:35 | 52.32044 | 13.99498 | 12200 ft | 298 kts | 87° |
| 2026-05-07 16:35 | 52.32570 | 14.02819 | 12764 ft | 308 kts | 63° |
| 2026-05-07 16:35 | 52.33906 | 14.05577 | 13386 ft | 314 kts | 38° |
| 2026-05-07 16:36 | 52.35840 | 14.07298 | 13612 ft | 331 kts | 13° |
| 2026-05-07 16:36 | 52.38181 | 14.07522 | 13763 ft | 347 kts | 351° |
| 2026-05-07 16:36 | 52.40632 | 14.07002 | 14054 ft | 361 kts | 350° |
| 2026-05-07 16:36 | 52.43140 | 14.06447 | 14627 ft | 365 kts | 351° |
| 2026-05-07 16:37 | 52.45668 | 14.05890 | 15262 ft | 368 kts | 351° |
| 2026-05-07 16:37 | 52.48215 | 14.05337 | 15942 ft | 370 kts | 352° |
| 2026-05-07 16:37 | 52.50774 | 14.04792 | 16624 ft | 372 kts | 352° |
| 2026-05-07 16:37 | 52.53349 | 14.04252 | 17266 ft | 374 kts | 352° |
| 2026-05-07 16:38 | 52.55957 | 14.03710 | 17902 ft | 378 kts | 352° |
| 2026-05-07 16:38 | 52.58574 | 14.03164 | 18486 ft | 381 kts | 352° |
| 2026-05-07 16:38 | 52.61215 | 14.02608 | 19041 ft | 384 kts | 352° |
| 2026-05-07 16:38 | 52.63839 | 14.02052 | 19586 ft | 386 kts | 352° |
| 2026-05-07 16:39 | 52.66517 | 14.01483 | 20140 ft | 389 kts | 352° |
| 2026-05-07 16:39 | 52.69214 | 14.00912 | 20693 ft | 393 kts | 352° |
| 2026-05-07 16:39 | 52.71936 | 14.00335 | 21253 ft | 395 kts | 352° |
| 2026-05-07 16:39 | 52.74676 | 13.99756 | 21829 ft | 398 kts | 352° |
| 2026-05-07 16:40 | 52.76502 | 13.99367 | 22172 ft | 400 kts | 352° |
| 2026-05-07 16:40 | 52.79280 | 13.98771 | 22688 ft | 403 kts | 352° |
| 2026-05-07 16:40 | 52.82080 | 13.98172 | 23206 ft | 406 kts | 353° |
| 2026-05-07 16:40 | 52.84889 | 13.97571 | 23701 ft | 409 kts | 353° |
| 2026-05-07 16:41 | 52.87731 | 13.97250 | 24093 ft | 411 kts | 2° |
| 2026-05-07 16:41 | 52.90579 | 13.97818 | 24494 ft | 414 kts | 13° |
| 2026-05-07 16:41 | 52.93319 | 13.99281 | 24916 ft | 415 kts | 24° |
| 2026-05-07 16:41 | 52.95854 | 14.01583 | 25348 ft | 417 kts | 34° |
| 2026-05-07 16:42 | 52.98199 | 14.04454 | 25814 ft | 419 kts | 37° |
| 2026-05-07 16:42 | 53.00550 | 14.07360 | 26282 ft | 422 kts | 37° |
| 2026-05-07 16:42 | 53.02889 | 14.10241 | 26723 ft | 424 kts | 37° |
| 2026-05-07 16:42 | 53.05263 | 14.13168 | 27156 ft | 426 kts | 37° |
| 2026-05-07 16:43 | 53.07654 | 14.16122 | 27558 ft | 428 kts | 37° |
| 2026-05-07 16:43 | 53.10042 | 14.19080 | 27971 ft | 429 kts | 37° |
| 2026-05-07 16:43 | 53.12448 | 14.22063 | 28347 ft | 432 kts | 38° |
| 2026-05-07 16:43 | 53.14864 | 14.25069 | 28725 ft | 434 kts | 37° |
| 2026-05-07 16:44 | 53.17288 | 14.28091 | 29046 ft | 437 kts | 38° |
| 2026-05-07 16:44 | 53.19731 | 14.31142 | 29421 ft | 439 kts | 38° |
| 2026-05-07 16:44 | 53.22174 | 14.34203 | 29768 ft | 441 kts | 38° |
| 2026-05-07 16:44 | 53.24636 | 14.37294 | 30141 ft | 443 kts | 38° |
| 2026-05-07 16:45 | 53.27119 | 14.40269 | 30416 ft | 447 kts | 33° |
| 2026-05-07 16:45 | 53.29880 | 14.42697 | 30675 ft | 451 kts | 25° |
| 2026-05-07 16:45 | 53.32804 | 14.44815 | 31009 ft | 453 kts | 24° |
| 2026-05-07 16:45 | 53.35697 | 14.46916 | 31373 ft | 454 kts | 25° |
| 2026-05-07 16:46 | 53.38607 | 14.49037 | 31694 ft | 457 kts | 24° |
| 2026-05-07 16:46 | 53.41493 | 14.51146 | 31978 ft | 459 kts | 24° |
| 2026-05-07 16:46 | 53.44428 | 14.53300 | 32252 ft | 461 kts | 24° |
| 2026-05-07 16:46 | 53.47377 | 14.55470 | 32601 ft | 462 kts | 24° |
| 2026-05-07 16:47 | 53.50317 | 14.57639 | 32936 ft | 463 kts | 24° |
| 2026-05-07 16:47 | 53.53265 | 14.59815 | 33278 ft | 463 kts | 24° |
| 2026-05-07 16:47 | 53.56215 | 14.61992 | 33608 ft | 464 kts | 24° |
| 2026-05-07 16:47 | 53.59177 | 14.64176 | 33948 ft | 464 kts | 24° |
| 2026-05-07 16:48 | 53.62140 | 14.66365 | 34236 ft | 465 kts | 24° |
| 2026-05-07 16:48 | 53.65103 | 14.68561 | 34492 ft | 466 kts | 24° |
| 2026-05-07 16:48 | 53.68069 | 14.70766 | 34750 ft | 466 kts | 24° |
| 2026-05-07 16:48 | 53.71045 | 14.72983 | 34966 ft | 468 kts | 24° |
| 2026-05-07 16:49 | 53.74036 | 14.75214 | 35091 ft | 472 kts | 24° |
| 2026-05-07 16:49 | 53.77049 | 14.77461 | 35286 ft | 474 kts | 24° |
| 2026-05-07 16:49 | 53.80069 | 14.79713 | 35535 ft | 475 kts | 24° |
| 2026-05-07 16:49 | 53.83055 | 14.81946 | 35797 ft | 475 kts | 24° |
| 2026-05-07 16:50 | 53.86080 | 14.84211 | 36067 ft | 475 kts | 24° |
| 2026-05-07 16:50 | 53.89103 | 14.86478 | 36330 ft | 475 kts | 23° |
| 2026-05-07 16:50 | 53.92125 | 14.88753 | 36578 ft | 475 kts | 23° |
| 2026-05-07 16:50 | 53.95151 | 14.91039 | 36835 ft | 475 kts | 23° |
| 2026-05-07 16:51 | 53.98172 | 14.93322 | 37046 ft | 476 kts | 23° |
| 2026-05-07 16:51 | 54.04228 | 14.97901 | 37114 ft | 475 kts | 23° |
| 2026-05-07 16:52 | 54.10269 | 15.02477 | 37109 ft | 475 kts | 23° |
| 2026-05-07 16:52 | 54.16311 | 15.07055 | 37109 ft | 475 kts | 23° |
| 2026-05-07 16:53 | 54.22357 | 15.11633 | 37116 ft | 475 kts | 23° |
| 2026-05-07 16:53 | 54.28367 | 15.16196 | 37118 ft | 475 kts | 23° |
| 2026-05-07 16:54 | 54.34411 | 15.20810 | 37127 ft | 476 kts | 23° |
| 2026-05-07 16:54 | 54.40458 | 15.25445 | 37140 ft | 476 kts | 23° |
| 2026-05-07 16:55 | 54.46496 | 15.30104 | 37136 ft | 476 kts | 23° |
| 2026-05-07 16:55 | 54.52532 | 15.34791 | 37136 ft | 476 kts | 23° |
| 2026-05-07 16:56 | 54.58572 | 15.39496 | 37143 ft | 476 kts | 23° |
| 2026-05-07 16:56 | 54.67623 | 15.46562 | 37145 ft | 476 kts | 23° |
| 2026-05-07 16:57 | 54.73658 | 15.51297 | 37146 ft | 476 kts | 23° |
| 2026-05-07 16:57 | 54.79654 | 15.56006 | 37146 ft | 476 kts | 23° |
| 2026-05-07 16:58 | 54.85690 | 15.60766 | 37139 ft | 476 kts | 23° |
| 2026-05-07 16:58 | 54.91697 | 15.65630 | 37138 ft | 476 kts | 28° |
| 2026-05-07 16:59 | 54.97313 | 15.71778 | 37140 ft | 477 kts | 32° |
| 2026-05-07 16:59 | 55.02865 | 15.77979 | 37145 ft | 477 kts | 32° |
| 2026-05-07 17:00 | 55.08480 | 15.84277 | 37144 ft | 477 kts | 32° |
| 2026-05-07 17:00 | 55.14029 | 15.90519 | 37141 ft | 477 kts | 32° |
| 2026-05-07 17:01 | 55.19611 | 15.96807 | 37146 ft | 477 kts | 32° |
| 2026-05-07 17:01 | 55.25188 | 16.03121 | 37151 ft | 477 kts | 32° |
| 2026-05-07 17:02 | 55.30726 | 16.09416 | 37161 ft | 476 kts | 32° |
| 2026-05-07 17:02 | 55.36275 | 16.15733 | 37152 ft | 475 kts | 32° |
| 2026-05-07 17:03 | 55.41842 | 16.22101 | 37150 ft | 474 kts | 32° |
| 2026-05-07 17:03 | 55.47338 | 16.28406 | 37146 ft | 473 kts | 32° |
| 2026-05-07 17:04 | 55.52857 | 16.34765 | 37148 ft | 473 kts | 32° |
| 2026-05-07 17:04 | 55.58367 | 16.41123 | 37148 ft | 473 kts | 32° |
| 2026-05-07 17:05 | 55.63873 | 16.47515 | 37150 ft | 473 kts | 32° |
| 2026-05-07 17:05 | 55.69373 | 16.53921 | 37149 ft | 473 kts | 32° |
| 2026-05-07 17:06 | 55.74872 | 16.60340 | 37159 ft | 473 kts | 32° |
| 2026-05-07 17:06 | 55.80325 | 16.66728 | 37150 ft | 472 kts | 32° |
| 2026-05-07 17:07 | 55.85815 | 16.73185 | 37144 ft | 472 kts | 32° |
| 2026-05-07 17:07 | 55.91293 | 16.79651 | 37143 ft | 472 kts | 32° |
| 2026-05-07 17:08 | 55.96763 | 16.86127 | 37157 ft | 472 kts | 32° |
| 2026-05-07 17:08 | 56.02235 | 16.92633 | 37151 ft | 472 kts | 32° |
| 2026-05-07 17:09 | 56.07696 | 16.99141 | 37149 ft | 471 kts | 32° |
| 2026-05-07 17:09 | 56.13149 | 17.05651 | 37147 ft | 471 kts | 32° |
| 2026-05-07 17:10 | 56.18602 | 17.12184 | 37145 ft | 471 kts | 32° |
| 2026-05-07 17:10 | 56.24014 | 17.18699 | 37151 ft | 471 kts | 32° |
| 2026-05-07 17:11 | 56.29450 | 17.25273 | 37148 ft | 470 kts | 32° |
| 2026-05-07 17:11 | 56.34880 | 17.31861 | 37150 ft | 470 kts | 32° |
| 2026-05-07 17:12 | 56.40296 | 17.38461 | 37152 ft | 470 kts | 32° |
| 2026-05-07 17:12 | 56.45717 | 17.45077 | 37155 ft | 470 kts | 32° |
| 2026-05-07 17:13 | 56.51130 | 17.51711 | 37153 ft | 470 kts | 32° |
| 2026-05-07 17:13 | 56.56543 | 17.58367 | 37152 ft | 470 kts | 32° |
| 2026-05-07 17:14 | 56.61947 | 17.65045 | 37152 ft | 469 kts | 32° |
| 2026-05-07 17:14 | 56.67341 | 17.71728 | 37144 ft | 470 kts | 32° |
| 2026-05-07 17:15 | 56.72752 | 17.78453 | 37140 ft | 471 kts | 32° |
| 2026-05-07 17:15 | 56.78123 | 17.85156 | 37146 ft | 471 kts | 32° |
| 2026-05-07 17:16 | 56.83538 | 17.91930 | 37133 ft | 471 kts | 32° |
| 2026-05-07 17:16 | 56.88949 | 17.98711 | 37136 ft | 472 kts | 32° |
| 2026-05-07 17:17 | 56.94351 | 18.05537 | 37145 ft | 472 kts | 32° |
| 2026-05-07 17:17 | 56.99752 | 18.12377 | 37143 ft | 472 kts | 32° |
| 2026-05-07 17:18 | 57.05156 | 18.19220 | 37142 ft | 472 kts | 32° |
| 2026-05-07 17:18 | 57.10550 | 18.26089 | 37143 ft | 472 kts | 32° |
| 2026-05-07 17:19 | 57.15909 | 18.32946 | 37158 ft | 472 kts | 32° |
| 2026-05-07 17:19 | 57.21297 | 18.39870 | 37151 ft | 472 kts | 32° |
| 2026-05-07 17:20 | 57.26682 | 18.46817 | 37150 ft | 472 kts | 32° |
| 2026-05-07 17:20 | 57.32062 | 18.53767 | 37149 ft | 472 kts | 32° |
| 2026-05-07 17:21 | 57.37437 | 18.60732 | 37147 ft | 472 kts | 32° |
| 2026-05-07 17:21 | 57.42812 | 18.67729 | 37147 ft | 472 kts | 32° |
| 2026-05-07 17:22 | 57.48146 | 18.74694 | 37148 ft | 471 kts | 32° |
| 2026-05-07 17:22 | 57.53506 | 18.81730 | 37148 ft | 471 kts | 33° |
| 2026-05-07 17:23 | 57.58865 | 18.88799 | 37154 ft | 471 kts | 33° |
| 2026-05-07 17:23 | 57.64224 | 18.95889 | 37165 ft | 472 kts | 32° |
| 2026-05-07 17:24 | 57.69583 | 19.02992 | 37156 ft | 472 kts | 32° |
| 2026-05-07 17:24 | 57.74929 | 19.10108 | 37160 ft | 472 kts | 33° |
| 2026-05-07 17:25 | 57.80279 | 19.17255 | 37136 ft | 472 kts | 33° |
| 2026-05-07 17:25 | 57.85630 | 19.24426 | 37167 ft | 473 kts | 33° |
| 2026-05-07 17:26 | 57.90988 | 19.31648 | 37160 ft | 474 kts | 33° |
| 2026-05-07 17:26 | 57.96319 | 19.38857 | 37154 ft | 474 kts | 33° |
| 2026-05-07 17:27 | 58.01685 | 19.46129 | 37156 ft | 475 kts | 33° |
| 2026-05-07 17:27 | 58.07046 | 19.53423 | 37158 ft | 475 kts | 33° |
| 2026-05-07 17:28 | 58.11500 | 19.59510 | 37168 ft | 475 kts | 33° |
| 2026-05-07 17:28 | 58.16858 | 19.66869 | 37160 ft | 476 kts | 33° |
| 2026-05-07 17:29 | 58.22216 | 19.74250 | 37162 ft | 476 kts | 33° |
| 2026-05-07 17:29 | 58.27577 | 19.81645 | 37161 ft | 476 kts | 33° |
| 2026-05-07 17:30 | 58.32930 | 19.89062 | 37162 ft | 476 kts | 33° |
| 2026-05-07 17:30 | 58.38281 | 19.96520 | 37175 ft | 477 kts | 33° |
| 2026-05-07 17:31 | 58.43642 | 20.04008 | 37163 ft | 478 kts | 33° |
| 2026-05-07 17:31 | 58.49002 | 20.11533 | 37157 ft | 478 kts | 33° |
| 2026-05-07 17:32 | 58.54358 | 20.19096 | 37159 ft | 478 kts | 33° |
| 2026-05-07 17:32 | 58.59686 | 20.26616 | 37157 ft | 479 kts | 33° |
| 2026-05-07 17:33 | 58.65057 | 20.34236 | 37148 ft | 479 kts | 33° |
| 2026-05-07 17:33 | 58.70417 | 20.41872 | 37151 ft | 480 kts | 33° |
| 2026-05-07 17:34 | 58.75784 | 20.49552 | 37154 ft | 481 kts | 33° |
| 2026-05-07 17:34 | 58.81149 | 20.57260 | 37158 ft | 481 kts | 33° |
| 2026-05-07 17:35 | 58.86511 | 20.65001 | 37172 ft | 482 kts | 33° |
| 2026-05-07 17:35 | 58.91883 | 20.72770 | 37139 ft | 482 kts | 33° |
| 2026-05-07 17:36 | 58.97255 | 20.80570 | 37144 ft | 483 kts | 33° |
| 2026-05-07 17:36 | 59.02588 | 20.88503 | 37147 ft | 485 kts | 38° |
| 2026-05-07 17:37 | 59.06952 | 20.98458 | 37176 ft | 491 kts | 56° |
| 2026-05-07 17:37 | 59.10513 | 21.09817 | 37158 ft | 492 kts | 56° |
| 2026-05-07 17:38 | 59.14096 | 21.21186 | 37154 ft | 493 kts | 56° |
| 2026-05-07 17:38 | 59.17663 | 21.32596 | 37149 ft | 493 kts | 57° |
| 2026-05-07 17:39 | 59.21213 | 21.44051 | 37156 ft | 493 kts | 57° |
| 2026-05-07 17:39 | 59.24751 | 21.55536 | 37151 ft | 494 kts | 57° |
| 2026-05-07 17:40 | 59.28287 | 21.67060 | 37161 ft | 494 kts | 57° |
| 2026-05-07 17:40 | 59.31817 | 21.78601 | 37135 ft | 495 kts | 57° |
| 2026-05-07 17:41 | 59.35340 | 21.90187 | 37137 ft | 495 kts | 57° |
| 2026-05-07 17:41 | 59.38859 | 22.01816 | 37139 ft | 496 kts | 57° |
| 2026-05-07 17:42 | 59.42379 | 22.13473 | 37131 ft | 496 kts | 57° |
| 2026-05-07 17:42 | 59.45870 | 22.25106 | 37169 ft | 497 kts | 57° |
| 2026-05-07 17:43 | 59.49389 | 22.36940 | 37084 ft | 498 kts | 58° |
| 2026-05-07 17:43 | 59.51136 | 22.42825 | 35942 ft | 502 kts | 57° |
| 2026-05-07 17:43 | 59.52900 | 22.48760 | 35000 ft | 511 kts | 57° |
| 2026-05-07 17:44 | 59.54695 | 22.54811 | 34274 ft | 512 kts | 57° |
| 2026-05-07 17:44 | 59.56482 | 22.60870 | 33628 ft | 509 kts | 57° |
| 2026-05-07 17:44 | 59.58254 | 22.66913 | 32906 ft | 508 kts | 57° |
| 2026-05-07 17:44 | 59.60018 | 22.72953 | 32173 ft | 506 kts | 57° |
| 2026-05-07 17:45 | 59.61762 | 22.78939 | 31311 ft | 501 kts | 57° |
| 2026-05-07 17:45 | 59.63488 | 22.84880 | 30461 ft | 496 kts | 57° |
| 2026-05-07 17:45 | 59.65197 | 22.90771 | 29519 ft | 491 kts | 58° |
| 2026-05-07 17:45 | 59.66879 | 22.96596 | 28631 ft | 484 kts | 57° |
| 2026-05-07 17:46 | 59.68527 | 23.02317 | 28122 ft | 473 kts | 57° |
| 2026-05-07 17:46 | 59.70147 | 23.07934 | 27643 ft | 467 kts | 57° |
| 2026-05-07 17:46 | 59.71753 | 23.13494 | 27167 ft | 462 kts | 57° |
| 2026-05-07 17:46 | 59.73338 | 23.18986 | 26723 ft | 457 kts | 57° |
| 2026-05-07 17:47 | 59.74909 | 23.24441 | 26268 ft | 452 kts | 57° |
| 2026-05-07 17:47 | 59.76439 | 23.29769 | 25847 ft | 448 kts | 57° |
| 2026-05-07 17:47 | 59.77971 | 23.35128 | 25422 ft | 444 kts | 57° |
| 2026-05-07 17:47 | 59.79486 | 23.40453 | 25008 ft | 441 kts | 57° |
| 2026-05-07 17:48 | 59.80988 | 23.45750 | 24610 ft | 438 kts | 57° |
| 2026-05-07 17:48 | 59.82475 | 23.51013 | 24193 ft | 437 kts | 57° |
| 2026-05-07 17:48 | 59.83961 | 23.56277 | 23748 ft | 435 kts | 57° |
| 2026-05-07 17:48 | 59.85443 | 23.61529 | 23282 ft | 433 kts | 57° |
| 2026-05-07 17:49 | 59.86906 | 23.66723 | 22841 ft | 428 kts | 57° |
| 2026-05-07 17:49 | 59.88351 | 23.71872 | 22413 ft | 424 kts | 57° |
| 2026-05-07 17:49 | 59.89773 | 23.76966 | 22113 ft | 416 kts | 58° |
| 2026-05-07 17:49 | 59.91187 | 23.81994 | 21306 ft | 422 kts | 57° |
| 2026-05-07 17:50 | 59.92647 | 23.87093 | 20769 ft | 421 kts | 57° |
| 2026-05-07 17:50 | 59.94101 | 23.92137 | 20263 ft | 419 kts | 57° |
| 2026-05-07 17:50 | 59.95532 | 23.97095 | 19740 ft | 417 kts | 57° |
| 2026-05-07 17:50 | 59.96975 | 24.02109 | 19236 ft | 415 kts | 57° |
| 2026-05-07 17:51 | 59.98404 | 24.07103 | 18722 ft | 413 kts | 57° |
| 2026-05-07 17:51 | 59.99820 | 24.12088 | 18264 ft | 409 kts | 57° |
| 2026-05-07 17:51 | 60.01215 | 24.17033 | 17732 ft | 407 kts | 57° |
| 2026-05-07 17:51 | 60.02597 | 24.21953 | 17174 ft | 404 kts | 57° |
| 2026-05-07 17:52 | 60.03958 | 24.26810 | 16704 ft | 399 kts | 57° |
| 2026-05-07 17:52 | 60.05311 | 24.31631 | 16256 ft | 393 kts | 57° |
| 2026-05-07 17:52 | 60.06648 | 24.36390 | 15716 ft | 391 kts | 57° |
| 2026-05-07 17:52 | 60.07972 | 24.41110 | 15264 ft | 386 kts | 57° |
| 2026-05-07 17:53 | 60.09281 | 24.45781 | 14817 ft | 381 kts | 57° |
| 2026-05-07 17:53 | 60.10627 | 24.50272 | 14474 ft | 370 kts | 50° |
| 2026-05-07 17:53 | 60.12199 | 24.54308 | 13642 ft | 366 kts | 47° |
| 2026-05-07 17:53 | 60.13782 | 24.58258 | 12846 ft | 360 kts | 47° |
| 2026-05-07 17:54 | 60.15342 | 24.62111 | 12256 ft | 350 kts | 47° |
| 2026-05-07 17:54 | 60.16820 | 24.65752 | 11898 ft | 334 kts | 48° |
| 2026-05-07 17:54 | 60.18261 | 24.69316 | 11484 ft | 322 kts | 48° |
| 2026-05-07 17:54 | 60.19654 | 24.72774 | 11062 ft | 312 kts | 49° |
| 2026-05-07 17:55 | 60.20992 | 24.76112 | 10687 ft | 302 kts | 49° |
| 2026-05-07 17:55 | 60.22290 | 24.79359 | 10306 ft | 293 kts | 49° |
| 2026-05-07 17:55 | 60.23554 | 24.82522 | 10235 ft | 292 kts | 49° |
| 2026-05-07 17:55 | 60.24834 | 24.85717 | 10121 ft | 294 kts | 49° |
| 2026-05-07 17:56 | 60.26115 | 24.88920 | 9794 ft | 296 kts | 49° |
| 2026-05-07 17:56 | 60.27399 | 24.92152 | 9431 ft | 292 kts | 49° |
| 2026-05-07 17:56 | 60.28663 | 24.95348 | 8985 ft | 292 kts | 49° |
| 2026-05-07 17:56 | 60.29919 | 24.98523 | 8699 ft | 287 kts | 49° |
| 2026-05-07 17:57 | 60.31152 | 25.01639 | 8153 ft | 281 kts | 49° |
| 2026-05-07 17:57 | 60.31948 | 25.03653 | 7822 ft | 275 kts | 49° |
| 2026-05-07 17:57 | 60.33580 | 25.07519 | 7287 ft | 270 kts | 38° |
| 2026-05-07 17:57 | 60.35169 | 25.09425 | 6907 ft | 263 kts | 17° |
| 2026-05-07 17:58 | 60.36955 | 25.10053 | 6527 ft | 263 kts | 358° |
| 2026-05-07 17:58 | 60.38740 | 25.09363 | 6145 ft | 261 kts | 338° |
| 2026-05-07 17:58 | 60.40375 | 25.07752 | 5732 ft | 261 kts | 333° |
| 2026-05-07 17:58 | 60.41989 | 25.06088 | 5333 ft | 260 kts | 333° |
| 2026-05-07 17:59 | 60.43593 | 25.04436 | 5049 ft | 256 kts | 333° |
| 2026-05-07 17:59 | 60.45143 | 25.02835 | 4997 ft | 242 kts | 333° |
| 2026-05-07 17:59 | 60.46611 | 25.01325 | 4892 ft | 232 kts | 333° |
| 2026-05-07 17:59 | 60.48026 | 24.99882 | 4682 ft | 226 kts | 333° |
| 2026-05-07 18:00 | 60.49431 | 24.98460 | 4367 ft | 224 kts | 333° |
| 2026-05-07 18:00 | 60.50743 | 24.96826 | 4023 ft | 223 kts | 316° |
| 2026-05-07 18:00 | 60.51570 | 24.94195 | 3696 ft | 223 kts | 288° |
| 2026-05-07 18:00 | 60.51670 | 24.91099 | 3473 ft | 222 kts | 260° |
| 2026-05-07 18:01 | 60.51024 | 24.88285 | 3242 ft | 223 kts | 231° |
| 2026-05-07 18:01 | 60.49778 | 24.86434 | 3170 ft | 227 kts | 203° |
| 2026-05-07 18:01 | 60.48315 | 24.85366 | 3114 ft | 225 kts | 201° |
| 2026-05-07 18:01 | 60.46819 | 24.84323 | 3031 ft | 224 kts | 197° |
| 2026-05-07 18:02 | 60.43778 | 24.85331 | 2585 ft | 233 kts | 154° |
| 2026-05-07 18:02 | 60.42351 | 24.86837 | 2233 ft | 231 kts | 154° |
| 2026-05-07 18:02 | 60.40939 | 24.88310 | 2006 ft | 223 kts | 155° |
| 2026-05-07 18:03 | 60.39601 | 24.89695 | 1924 ft | 210 kts | 155° |
| 2026-05-07 18:03 | 60.38312 | 24.91017 | 1476 ft | 206 kts | 155° |
| 2026-05-07 18:03 | 60.37063 | 24.92300 | 1115 ft | 194 kts | 154° |
| 2026-05-07 18:03 | 60.35912 | 24.93484 | 835 ft | 177 kts | 154° |
| 2026-05-07 18:04 | 60.34886 | 24.94540 | 640 ft | 154 kts | 154° |
| 2026-05-07 18:04 | 60.33979 | 24.95479 | 388 ft | 141 kts | 153° |
| 2026-05-07 18:04 | 60.33128 | 24.96361 | 251 ft | 137 kts | 154° |
| 2026-05-07 18:04 | 60.32327 | 24.97166 | 159 ft | 102 kts | 153° |
| 2026-05-07 18:05 | 60.31958 | 24.97547 | 153 ft | 28 kts | 153° |
| 2026-05-07 18:05 | 60.31786 | 24.97722 | 152 ft | 24 kts | 156° |
| 2026-05-07 18:05 | 60.31693 | 24.97684 | 153 ft | 11 kts | 223° |
| 2026-05-07 18:05 | 60.31674 | 24.97629 | 154 ft | 2 kts | 241° |
| 2026-05-07 18:06 | 60.31672 | 24.97623 | 154 ft | 0 kts | 241° |
| 2026-05-07 18:07 | 60.31672 | 24.97622 | 154 ft | 0 kts | 241° |
| 2026-05-07 18:07 | 60.31664 | 24.97561 | 157 ft | 9 kts | 267° |
| 2026-05-07 18:07 | 60.31696 | 24.97479 | 159 ft | 8 kts | 328° |
| 2026-05-07 18:07 | 60.31772 | 24.97399 | 160 ft | 18 kts | 333° |
| 2026-05-07 18:08 | 60.31893 | 24.97276 | 162 ft | 20 kts | 333° |
| 2026-05-07 18:08 | 60.32014 | 24.97149 | 165 ft | 20 kts | 332° |
| 2026-05-07 18:08 | 60.32138 | 24.97022 | 166 ft | 21 kts | 333° |
| 2026-05-07 18:08 | 60.32267 | 24.96889 | 165 ft | 20 kts | 333° |
| 2026-05-07 18:09 | 60.32304 | 24.96806 | 166 ft | 3 kts | 262° |
| 2026-05-07 18:09 | 60.32286 | 24.96748 | 166 ft | 8 kts | 230° |
| 2026-05-07 18:09 | 60.32238 | 24.96639 | 168 ft | 13 kts | 227° |
| 2026-05-07 18:09 | 60.32164 | 24.96477 | 168 ft | 17 kts | 227° |
| 2026-05-07 18:10 | 60.32086 | 24.96305 | 168 ft | 9 kts | 227° |
| 2026-05-07 18:10 | 60.32075 | 24.96280 | 168 ft | 1 kts | 227° |
| 2026-05-07 18:10 | 60.32065 | 24.96258 | 168 ft | 1 kts | 227° |
| 2026-05-07 18:11 | 60.32063 | 24.96255 | 168 ft | 2 kts | 227° |
| 2026-05-07 18:11 | 60.32046 | 24.96216 | 168 ft | 9 kts | 227° |
| 2026-05-07 18:11 | 60.31996 | 24.96108 | 169 ft | 0 kts | 228° |
| 2026-05-07 18:12 | 60.31995 | 24.96105 | 169 ft | 1 kts | 228° |
| 2026-05-07 18:12 | 60.31970 | 24.96052 | 169 ft | 10 kts | 221° |
| 2026-05-07 18:12 | 60.31894 | 24.96090 | 167 ft | 14 kts | 137° |
| 2026-05-07 18:13 | 60.31854 | 24.96204 | 167 ft | 15 kts | 104° |
| 2026-05-07 18:13 | 60.31841 | 24.96315 | 167 ft | 6 kts | 129° |
| 2026-05-07 18:13 | 60.31815 | 24.96366 | 167 ft | 1 kts | 137° |
| 2026-05-07 18:13 | 60.31809 | 24.96377 | 167 ft | 1 kts | 137° |
| 2026-05-07 18:14 | 60.31804 | 24.96386 | 167 ft | 0 kts | 137° |